Leonore, Illinois
Current Conditions -  °F | °C
As of 8:35 AM on Friday 24 Oct 2014 (Local Time) from KVYS Reporting Station
Moderate Fog Moderate Fog  
Wind Chill: 45°   Ceiling: 200
Heat Index: 45°   Visibility: 0mi
Dew Point: 44°   Wind: 3mph
Humidity: 97%   Direction: 270°W
Pressure: 30.09"   Gusts: NA
Location:  41.19°N, 88.98°W
Report Text: KVYS 241335Z AUTO 27003KT M1/4SM FG OVC002 07/07 A3009 RMK AO2 T00700066
Loading
Personal Weather Stations






























Interactive Weather Map New forecast layout! Learn more

10-Day Weather Forecast

Advertisements
Track Severe Weather on mobile